PWSweather.com
Personal Weather Stations
Station Observations
KOHCLEVE171
Cleveland, OH

Cleveland, OH

Lat: 41.48646164, Lon: -81.46408081

Elevation: 1059

Station Type:

High Low Average
Temperature 28.8°F-1.8°C 14.4°F-9.8°C 23.0°F-5.0°C
Dew Point 22.8°F-5.1°C 9.5°F-12.5°C 18.0°F-7.8°C
Winds 3.1 mph 5.0 kmh Calm Calm 2.0 mph SE3.2 kmh SE
Wind Gusts 5.6 mph9.0 kmh -- 2.0 mph3.2 kmh
Humidity 90% 76% 81%
Pressure 30.38 in1028.8 mb 30.28 in1025.4 mb -
Precipitation 0.00 in0.0 mm - -
Hour Temp Dew Point Humidity Winds Wind Gusts Pressure Precip Precip Rate Daily Precip Total
12:03 AM 22.8°F-5.1°C 18.5°F-7.5°C 83% 1.3 mph S2.1 kmh S 1.8 mph2.9 kmh 30.36 in1028.1 mb 0.00 in0.0 mm 0.00 in0.0 mm 0.00 in0.0 mm
12:08 AM 22.8°F-5.1°C 18.5°F-7.5°C 83% 0.7 mph SSE1.1 kmh SSE 1.3 mph2.1 kmh 30.36 in1028.1 mb 0.00 in0.0 mm 0.00 in0.0 mm 0.00 in0.0 mm
12:13 AM 22.8°F-5.1°C 18.5°F-7.5°C 83% 0.9 mph S1.4 kmh S 1.3 mph2.1 kmh 30.36 in1028.1 mb 0.00 in0.0 mm 0.00 in0.0 mm 0.00 in0.0 mm
12:18 AM 23.0°F-5.0°C 18.7°F-7.4°C 83% 1.1 mph S1.8 kmh S 2.7 mph4.3 kmh 30.36 in1028.1 mb 0.00 in0.0 mm 0.00 in0.0 mm 0.00 in0.0 mm
12:23 AM 22.8°F-5.1°C 18.5°F-7.5°C 83% 1.1 mph SE1.8 kmh SE 1.8 mph2.9 kmh 30.36 in1028.1 mb 0.00 in0.0 mm 0.00 in0.0 mm 0.00 in0.0 mm
12:28 AM 22.8°F-5.1°C 18.5°F-7.5°C 83% 1.3 mph ESE2.1 kmh ESE 1.8 mph2.9 kmh 30.36 in1028.1 mb 0.00 in0.0 mm 0.00 in0.0 mm 0.00 in0.0 mm
12:33 AM 22.8°F-5.1°C 18.5°F-7.5°C 83% 0.7 mph S1.1 kmh S 2.7 mph4.3 kmh 30.36 in1028.1 mb 0.00 in0.0 mm 0.00 in0.0 mm 0.00 in0.0 mm
12:38 AM 22.8°F-5.1°C 18.5°F-7.5°C 83% 1.8 mph E2.9 kmh E 2.5 mph4.0 kmh 30.35 in1027.8 mb 0.00 in0.0 mm 0.00 in0.0 mm 0.00 in0.0 mm
12:43 AM 22.6°F-5.2°C 18.3°F-7.6°C 83% 0.9 mph ESE1.4 kmh ESE 2.0 mph3.2 kmh 30.35 in1027.8 mb 0.00 in0.0 mm 0.00 in0.0 mm 0.00 in0.0 mm
12:48 AM 22.5°F-5.3°C 18.1°F-7.7°C 83% Calm Calm -- 30.35 in1027.8 mb 0.00 in0.0 mm 0.00 in0.0 mm 0.00 in0.0 mm
12:53 AM 22.6°F-5.2°C 18.3°F-7.6°C 83% 1.1 mph SE1.8 kmh SE 1.3 mph2.1 kmh 30.35 in1027.8 mb 0.00 in0.0 mm 0.00 in0.0 mm 0.00 in0.0 mm
01:03 AM 22.5°F-5.3°C 18.1°F-7.7°C 83% 1.3 mph SE2.1 kmh SE 1.3 mph2.1 kmh 30.34 in1027.4 mb 0.00 in0.0 mm 0.00 in0.0 mm 0.00 in0.0 mm
01:08 AM 22.5°F-5.3°C 18.1°F-7.7°C 83% 1.6 mph ESE2.6 kmh ESE 2.0 mph3.2 kmh 30.34 in1027.4 mb 0.00 in0.0 mm 0.00 in0.0 mm 0.00 in0.0 mm
01:13 AM 22.5°F-5.3°C 18.1°F-7.7°C 83% 0.9 mph SSE1.4 kmh SSE 1.1 mph1.8 kmh 30.34 in1027.4 mb 0.00 in0.0 mm 0.00 in0.0 mm 0.00 in0.0 mm
01:18 AM 22.3°F-5.4°C 17.6°F-8.0°C 82% 1.1 mph NNW1.8 kmh NNW 1.3 mph2.1 kmh 30.34 in1027.4 mb 0.00 in0.0 mm 0.00 in0.0 mm 0.00 in0.0 mm
01:23 AM 22.1°F-5.5°C 17.4°F-8.1°C 82% 1.1 mph N1.8 kmh N 1.3 mph2.1 kmh 30.34 in1027.4 mb 0.00 in0.0 mm 0.00 in0.0 mm 0.00 in0.0 mm
01:28 AM 22.1°F-5.5°C 17.8°F-7.9°C 83% 1.1 mph SE1.8 kmh SE 1.3 mph2.1 kmh 30.34 in1027.4 mb 0.00 in0.0 mm 0.00 in0.0 mm 0.00 in0.0 mm
01:33 AM 21.9°F-5.6°C 17.6°F-8.0°C 83% 0.4 mph SSE0.6 kmh SSE 2.7 mph4.3 kmh 30.33 in1027.1 mb 0.00 in0.0 mm 0.00 in0.0 mm 0.00 in0.0 mm
01:38 AM 21.7°F-5.7°C 17.4°F-8.1°C 83% 1.3 mph ESE2.1 kmh ESE 1.6 mph2.6 kmh 30.34 in1027.4 mb 0.00 in0.0 mm 0.00 in0.0 mm 0.00 in0.0 mm
01:43 AM 21.7°F-5.7°C 17.4°F-8.1°C 83% 0.9 mph SE1.4 kmh SE 1.6 mph2.6 kmh 30.33 in1027.1 mb 0.00 in0.0 mm 0.00 in0.0 mm 0.00 in0.0 mm
01:48 AM 21.6°F-5.8°C 17.2°F-8.2°C 83% 1.3 mph SE2.1 kmh SE 1.6 mph2.6 kmh 30.33 in1027.1 mb 0.00 in0.0 mm 0.00 in0.0 mm 0.00 in0.0 mm
01:53 AM 21.6°F-5.8°C 17.2°F-8.2°C 83% 0.4 mph SE0.6 kmh SE 0.7 mph1.1 kmh 30.33 in1027.1 mb 0.00 in0.0 mm 0.00 in0.0 mm 0.00 in0.0 mm
01:58 AM 21.4°F-5.9°C 17.1°F-8.3°C 83% 0.7 mph SSE1.1 kmh SSE 0.9 mph1.4 kmh 30.33 in1027.1 mb 0.00 in0.0 mm 0.00 in0.0 mm 0.00 in0.0 mm
02:03 AM 21.2°F-6.0°C 16.5°F-8.6°C 82% 1.6 mph ESE2.6 kmh ESE 1.8 mph2.9 kmh 30.33 in1027.1 mb 0.00 in0.0 mm 0.00 in0.0 mm 0.00 in0.0 mm
02:08 AM 21.2°F-6.0°C 16.9°F-8.4°C 83% 1.6 mph SE2.6 kmh SE 1.6 mph2.6 kmh 30.33 in1027.1 mb 0.00 in0.0 mm 0.00 in0.0 mm 0.00 in0.0 mm
02:13 AM 20.8°F-6.2°C 16.2°F-8.8°C 82% 1.3 mph E2.1 kmh E 1.6 mph2.6 kmh 30.33 in1027.1 mb 0.00 in0.0 mm 0.00 in0.0 mm 0.00 in0.0 mm
02:18 AM 20.7°F-6.3°C 16.0°F-8.9°C 82% 1.1 mph N1.8 kmh N 1.3 mph2.1 kmh 30.33 in1027.1 mb 0.00 in0.0 mm 0.00 in0.0 mm 0.00 in0.0 mm
02:23 AM 20.3°F-6.5°C 15.6°F-9.1°C 82% Calm Calm -- 30.33 in1027.1 mb 0.00 in0.0 mm 0.00 in0.0 mm 0.00 in0.0 mm
02:28 AM 19.9°F-6.7°C 15.3°F-9.3°C 82% 1.3 mph NNE2.1 kmh NNE 1.6 mph2.6 kmh 30.33 in1027.1 mb 0.00 in0.0 mm 0.00 in0.0 mm 0.00 in0.0 mm
02:33 AM 19.6°F-6.9°C 14.9°F-9.5°C 82% 1.3 mph NNE2.1 kmh NNE 1.6 mph2.6 kmh 30.33 in1027.1 mb 0.00 in0.0 mm 0.00 in0.0 mm 0.00 in0.0 mm
02:38 AM 19.2°F-7.1°C 14.9°F-9.5°C 83% 1.6 mph NE2.6 kmh NE 1.8 mph2.9 kmh 30.33 in1027.1 mb 0.00 in0.0 mm 0.00 in0.0 mm 0.00 in0.0 mm
02:43 AM 19.6°F-6.9°C 15.3°F-9.3°C 83% 1.6 mph SE2.6 kmh SE 1.8 mph2.9 kmh 30.34 in1027.4 mb 0.00 in0.0 mm 0.00 in0.0 mm 0.00 in0.0 mm
02:48 AM 19.8°F-6.8°C 15.4°F-9.2°C 83% 1.3 mph NNW2.1 kmh NNW 1.8 mph2.9 kmh 30.34 in1027.4 mb 0.00 in0.0 mm 0.00 in0.0 mm 0.00 in0.0 mm
02:53 AM 19.4°F-7.0°C 14.7°F-9.6°C 82% 1.3 mph NNE2.1 kmh NNE 1.8 mph2.9 kmh 30.34 in1027.4 mb 0.00 in0.0 mm 0.00 in0.0 mm 0.00 in0.0 mm
02:58 AM 19.2°F-7.1°C 14.5°F-9.7°C 82% 1.1 mph SE1.8 kmh SE 2.0 mph3.2 kmh 30.34 in1027.4 mb 0.00 in0.0 mm 0.00 in0.0 mm 0.00 in0.0 mm
03:03 AM 19.4°F-7.0°C 15.1°F-9.4°C 83% 1.1 mph SSE1.8 kmh SSE 1.1 mph1.8 kmh 30.34 in1027.4 mb 0.00 in0.0 mm 0.00 in0.0 mm 0.00 in0.0 mm
03:08 AM 19.6°F-6.9°C 15.3°F-9.3°C 83% 0.9 mph SE1.4 kmh SE 1.8 mph2.9 kmh 30.34 in1027.4 mb 0.00 in0.0 mm 0.00 in0.0 mm 0.00 in0.0 mm
03:13 AM 19.6°F-6.9°C 14.9°F-9.5°C 82% 1.8 mph E2.9 kmh E 2.2 mph3.5 kmh 30.34 in1027.4 mb 0.00 in0.0 mm 0.00 in0.0 mm 0.00 in0.0 mm
03:18 AM 19.0°F-7.2°C 14.5°F-9.7°C 82% 0.9 mph NE1.4 kmh NE 1.6 mph2.6 kmh 30.34 in1027.4 mb 0.00 in0.0 mm 0.00 in0.0 mm 0.00 in0.0 mm
03:23 AM 18.9°F-7.3°C 14.4°F-9.8°C 82% 0.7 mph SE1.1 kmh SE 1.8 mph2.9 kmh 30.34 in1027.4 mb 0.00 in0.0 mm 0.00 in0.0 mm 0.00 in0.0 mm
03:28 AM 18.7°F-7.4°C 14.2°F-9.9°C 82% 1.8 mph NE2.9 kmh NE 2.0 mph3.2 kmh 30.34 in1027.4 mb 0.00 in0.0 mm 0.00 in0.0 mm 0.00 in0.0 mm
03:33 AM 18.9°F-7.3°C 14.4°F-9.8°C 82% 1.8 mph ENE2.9 kmh ENE 1.8 mph2.9 kmh 30.34 in1027.4 mb 0.00 in0.0 mm 0.00 in0.0 mm 0.00 in0.0 mm
03:38 AM 18.7°F-7.4°C 14.2°F-9.9°C 82% 1.6 mph NE2.6 kmh NE 1.8 mph2.9 kmh 30.34 in1027.4 mb 0.00 in0.0 mm 0.00 in0.0 mm 0.00 in0.0 mm
03:43 AM 18.7°F-7.4°C 14.2°F-9.9°C 82% 1.3 mph N2.1 kmh N 1.8 mph2.9 kmh 30.35 in1027.8 mb 0.00 in0.0 mm 0.00 in0.0 mm 0.00 in0.0 mm
03:48 AM 18.7°F-7.4°C 13.8°F-10.1°C 81% 2.0 mph SE3.2 kmh SE 2.0 mph3.2 kmh 30.34 in1027.4 mb 0.00 in0.0 mm 0.00 in0.0 mm 0.00 in0.0 mm
03:53 AM 18.7°F-7.4°C 14.2°F-9.9°C 82% 1.8 mph SE2.9 kmh SE 2.0 mph3.2 kmh 30.34 in1027.4 mb 0.00 in0.0 mm 0.00 in0.0 mm 0.00 in0.0 mm
03:58 AM 18.5°F-7.5°C 13.6°F-10.2°C 81% 2.0 mph ESE3.2 kmh ESE 2.0 mph3.2 kmh 30.34 in1027.4 mb 0.00 in0.0 mm 0.00 in0.0 mm 0.00 in0.0 mm
04:03 AM 18.1°F-7.7°C 13.3°F-10.4°C 81% 1.8 mph E2.9 kmh E 2.0 mph3.2 kmh 30.34 in1027.4 mb 0.00 in0.0 mm 0.00 in0.0 mm 0.00 in0.0 mm
04:08 AM 18.0°F-7.8°C 13.1°F-10.5°C 81% 1.6 mph NE2.6 kmh NE 1.8 mph2.9 kmh 30.34 in1027.4 mb 0.00 in0.0 mm 0.00 in0.0 mm 0.00 in0.0 mm
04:13 AM 18.0°F-7.8°C 13.1°F-10.5°C 81% 1.6 mph NE2.6 kmh NE 1.8 mph2.9 kmh 30.34 in1027.4 mb 0.00 in0.0 mm 0.00 in0.0 mm 0.00 in0.0 mm
04:18 AM 17.8°F-7.9°C 12.9°F-10.6°C 81% 1.8 mph ENE2.9 kmh ENE 1.8 mph2.9 kmh 30.34 in1027.4 mb 0.00 in0.0 mm 0.00 in0.0 mm 0.00 in0.0 mm
04:23 AM 17.8°F-7.9°C 12.9°F-10.6°C 81% 2.0 mph ESE3.2 kmh ESE 2.2 mph3.5 kmh 30.34 in1027.4 mb 0.00 in0.0 mm 0.00 in0.0 mm 0.00 in0.0 mm
04:28 AM 17.8°F-7.9°C 12.9°F-10.6°C 81% 2.0 mph SE3.2 kmh SE 2.2 mph3.5 kmh 30.34 in1027.4 mb 0.00 in0.0 mm 0.00 in0.0 mm 0.00 in0.0 mm
04:33 AM 17.8°F-7.9°C 12.9°F-10.6°C 81% 2.0 mph ESE3.2 kmh ESE 2.2 mph3.5 kmh 30.34 in1027.4 mb 0.00 in0.0 mm 0.00 in0.0 mm 0.00 in0.0 mm
04:38 AM 17.6°F-8.0°C 12.7°F-10.7°C 81% 2.0 mph ESE3.2 kmh ESE 2.0 mph3.2 kmh 30.34 in1027.4 mb 0.00 in0.0 mm 0.00 in0.0 mm 0.00 in0.0 mm
04:43 AM 17.8°F-7.9°C 12.9°F-10.6°C 81% 1.8 mph NE2.9 kmh NE 1.8 mph2.9 kmh 30.34 in1027.4 mb 0.00 in0.0 mm 0.00 in0.0 mm 0.00 in0.0 mm
04:48 AM 17.1°F-8.3°C 12.2°F-11.0°C 81% 1.8 mph NE2.9 kmh NE 1.8 mph2.9 kmh 30.34 in1027.4 mb 0.00 in0.0 mm 0.00 in0.0 mm 0.00 in0.0 mm
04:53 AM 16.9°F-8.4°C 12.0°F-11.1°C 81% 1.6 mph N2.6 kmh N 2.0 mph3.2 kmh 30.34 in1027.4 mb 0.00 in0.0 mm 0.00 in0.0 mm 0.00 in0.0 mm
04:58 AM 16.9°F-8.4°C 12.0°F-11.1°C 81% 2.0 mph ESE3.2 kmh ESE 2.2 mph3.5 kmh 30.34 in1027.4 mb 0.00 in0.0 mm 0.00 in0.0 mm 0.00 in0.0 mm
05:03 AM 17.1°F-8.3°C 12.2°F-11.0°C 81% 2.2 mph SE3.5 kmh SE 2.5 mph4.0 kmh 30.34 in1027.4 mb 0.00 in0.0 mm 0.00 in0.0 mm 0.00 in0.0 mm
05:08 AM 17.2°F-8.2°C 12.4°F-10.9°C 81% 2.0 mph SE3.2 kmh SE 2.2 mph3.5 kmh 30.34 in1027.4 mb 0.00 in0.0 mm 0.00 in0.0 mm 0.00 in0.0 mm
05:13 AM 16.9°F-8.4°C 12.0°F-11.1°C 81% 1.8 mph NE2.9 kmh NE 2.0 mph3.2 kmh 30.34 in1027.4 mb 0.00 in0.0 mm 0.00 in0.0 mm 0.00 in0.0 mm
05:18 AM 16.5°F-8.6°C 11.7°F-11.3°C 81% 2.0 mph ESE3.2 kmh ESE 2.0 mph3.2 kmh 30.34 in1027.4 mb 0.00 in0.0 mm 0.00 in0.0 mm 0.00 in0.0 mm
05:23 AM 16.7°F-8.5°C 11.8°F-11.2°C 81% 1.8 mph NE2.9 kmh NE 2.0 mph3.2 kmh 30.34 in1027.4 mb 0.00 in0.0 mm 0.00 in0.0 mm 0.00 in0.0 mm
05:28 AM 16.7°F-8.5°C 11.8°F-11.2°C 81% 2.2 mph ESE3.5 kmh ESE 2.2 mph3.5 kmh 30.34 in1027.4 mb 0.00 in0.0 mm 0.00 in0.0 mm 0.00 in0.0 mm
05:33 AM 16.3°F-8.7°C 11.5°F-11.4°C 81% 1.8 mph E2.9 kmh E 2.2 mph3.5 kmh 30.34 in1027.4 mb 0.00 in0.0 mm 0.00 in0.0 mm 0.00 in0.0 mm
05:38 AM 15.8°F-9.0°C 10.9°F-11.7°C 81% 1.8 mph NNE2.9 kmh NNE 2.0 mph3.2 kmh 30.34 in1027.4 mb 0.00 in0.0 mm 0.00 in0.0 mm 0.00 in0.0 mm
05:43 AM 15.3°F-9.3°C 10.4°F-12.0°C 81% 1.8 mph E2.9 kmh E 2.0 mph3.2 kmh 30.34 in1027.4 mb 0.00 in0.0 mm 0.00 in0.0 mm 0.00 in0.0 mm
05:48 AM 15.3°F-9.3°C 10.4°F-12.0°C 81% 1.8 mph N2.9 kmh N 2.0 mph3.2 kmh 30.34 in1027.4 mb 0.00 in0.0 mm 0.00 in0.0 mm 0.00 in0.0 mm
05:53 AM 15.3°F-9.3°C 10.4°F-12.0°C 81% 1.8 mph E2.9 kmh E 2.0 mph3.2 kmh 30.33 in1027.1 mb 0.00 in0.0 mm 0.00 in0.0 mm 0.00 in0.0 mm
05:58 AM 15.3°F-9.3°C 10.4°F-12.0°C 81% 2.0 mph ESE3.2 kmh ESE 2.0 mph3.2 kmh 30.34 in1027.4 mb 0.00 in0.0 mm 0.00 in0.0 mm 0.00 in0.0 mm
06:03 AM 15.6°F-9.1°C 11.1°F-11.6°C 82% 2.0 mph SE3.2 kmh SE 2.2 mph3.5 kmh 30.33 in1027.1 mb 0.00 in0.0 mm 0.00 in0.0 mm 0.00 in0.0 mm
06:08 AM 16.0°F-8.9°C 11.1°F-11.6°C 81% 2.2 mph ESE3.5 kmh ESE 2.2 mph3.5 kmh 30.33 in1027.1 mb 0.00 in0.0 mm 0.00 in0.0 mm 0.00 in0.0 mm
06:14 AM 15.8°F-9.0°C 10.8°F-11.8°C 80% 2.0 mph ESE3.2 kmh ESE 2.2 mph3.5 kmh 30.33 in1027.1 mb 0.00 in0.0 mm 0.00 in0.0 mm 0.00 in0.0 mm
06:18 AM 16.0°F-8.9°C 10.9°F-11.7°C 80% 2.0 mph ESE3.2 kmh ESE 2.2 mph3.5 kmh 30.33 in1027.1 mb 0.00 in0.0 mm 0.00 in0.0 mm 0.00 in0.0 mm
06:23 AM 15.6°F-9.1°C 10.6°F-11.9°C 80% 2.0 mph E3.2 kmh E 2.5 mph4.0 kmh 30.33 in1027.1 mb 0.00 in0.0 mm 0.00 in0.0 mm 0.00 in0.0 mm
06:28 AM 15.1°F-9.4°C 10.0°F-12.2°C 80% 1.8 mph NNE2.9 kmh NNE 2.0 mph3.2 kmh 30.33 in1027.1 mb 0.00 in0.0 mm 0.00 in0.0 mm 0.00 in0.0 mm
06:33 AM 14.9°F-9.5°C 9.9°F-12.3°C 80% 2.2 mph ESE3.5 kmh ESE 2.2 mph3.5 kmh 30.33 in1027.1 mb 0.00 in0.0 mm 0.00 in0.0 mm 0.00 in0.0 mm
06:38 AM 14.5°F-9.7°C 9.5°F-12.5°C 80% 1.8 mph N2.9 kmh N 1.8 mph2.9 kmh 30.34 in1027.4 mb 0.00 in0.0 mm 0.00 in0.0 mm 0.00 in0.0 mm
06:43 AM 14.5°F-9.7°C 9.9°F-12.3°C 81% 1.8 mph 2.9 kmh 2.0 mph3.2 kmh 30.34 in1027.4 mb 0.00 in0.0 mm 0.00 in0.0 mm 0.00 in0.0 mm
06:48 AM 14.4°F-9.8°C 9.7°F-12.4°C 81% 2.0 mph ESE3.2 kmh ESE 2.2 mph3.5 kmh 30.34 in1027.4 mb 0.00 in0.0 mm 0.00 in0.0 mm 0.00 in0.0 mm
06:53 AM 14.5°F-9.7°C 9.9°F-12.3°C 81% 2.0 mph E3.2 kmh E 2.2 mph3.5 kmh 30.34 in1027.4 mb 0.00 in0.0 mm 0.00 in0.0 mm 0.00 in0.0 mm
06:59 AM 14.7°F-9.6°C 9.9°F-12.3°C 81% 2.2 mph SE3.5 kmh SE 2.5 mph4.0 kmh 30.34 in1027.4 mb 0.00 in0.0 mm 0.00 in0.0 mm 0.00 in0.0 mm
07:04 AM 14.5°F-9.7°C 9.9°F-12.3°C 81% 2.0 mph E3.2 kmh E 2.5 mph4.0 kmh 30.34 in1027.4 mb 0.00 in0.0 mm 0.00 in0.0 mm 0.00 in0.0 mm
07:09 AM 14.9°F-9.5°C 10.0°F-12.2°C 81% 2.0 mph ESE3.2 kmh ESE 2.2 mph3.5 kmh 30.35 in1027.8 mb 0.00 in0.0 mm 0.00 in0.0 mm 0.00 in0.0 mm
07:14 AM 14.9°F-9.5°C 10.0°F-12.2°C 81% 2.0 mph E3.2 kmh E 2.7 mph4.3 kmh 30.35 in1027.8 mb 0.00 in0.0 mm 0.00 in0.0 mm 0.00 in0.0 mm
07:18 AM 14.9°F-9.5°C 10.0°F-12.2°C 81% 0.9 mph NW1.4 kmh NW 2.0 mph3.2 kmh 30.35 in1027.8 mb 0.00 in0.0 mm 0.00 in0.0 mm 0.00 in0.0 mm
07:24 AM 15.1°F-9.4°C 10.2°F-12.1°C 81% 1.6 mph N2.6 kmh N 1.8 mph2.9 kmh 30.35 in1027.8 mb 0.00 in0.0 mm 0.00 in0.0 mm 0.00 in0.0 mm
07:29 AM 15.1°F-9.4°C 10.2°F-12.1°C 81% 1.8 mph ENE2.9 kmh ENE 2.0 mph3.2 kmh 30.35 in1027.8 mb 0.00 in0.0 mm 0.00 in0.0 mm 0.00 in0.0 mm
07:34 AM 14.9°F-9.5°C 9.9°F-12.3°C 80% 1.6 mph N2.6 kmh N 2.0 mph3.2 kmh 30.35 in1027.8 mb 0.00 in0.0 mm 0.00 in0.0 mm 0.00 in0.0 mm
07:39 AM 14.7°F-9.6°C 9.9°F-12.3°C 81% 2.2 mph SE3.5 kmh SE 2.2 mph3.5 kmh 30.35 in1027.8 mb 0.00 in0.0 mm 0.00 in0.0 mm 0.00 in0.0 mm
07:44 AM 15.1°F-9.4°C 10.2°F-12.1°C 81% 1.8 mph NNW2.9 kmh NNW 2.2 mph3.5 kmh 30.35 in1027.8 mb 0.00 in0.0 mm 0.00 in0.0 mm 0.00 in0.0 mm
07:49 AM 15.4°F-9.2°C 11.1°F-11.6°C 83% 1.8 mph ESE2.9 kmh ESE 2.2 mph3.5 kmh 30.35 in1027.8 mb 0.00 in0.0 mm 0.00 in0.0 mm 0.00 in0.0 mm
07:54 AM 15.6°F-9.1°C 11.3°F-11.5°C 83% 2.0 mph ESE3.2 kmh ESE 2.2 mph3.5 kmh 30.35 in1027.8 mb 0.00 in0.0 mm 0.00 in0.0 mm 0.00 in0.0 mm
07:59 AM 15.8°F-9.0°C 11.5°F-11.4°C 83% 1.8 mph NE2.9 kmh NE 2.0 mph3.2 kmh 30.35 in1027.8 mb 0.00 in0.0 mm 0.00 in0.0 mm 0.00 in0.0 mm
08:04 AM 16.0°F-8.9°C 11.7°F-11.3°C 83% 2.2 mph E3.5 kmh E 2.9 mph4.7 kmh 30.35 in1027.8 mb 0.00 in0.0 mm 0.00 in0.0 mm 0.00 in0.0 mm
08:09 AM 16.2°F-8.8°C 11.8°F-11.2°C 83% 2.5 mph SE4.0 kmh SE 2.7 mph4.3 kmh 30.35 in1027.8 mb 0.00 in0.0 mm 0.00 in0.0 mm 0.00 in0.0 mm
08:14 AM 16.3°F-8.7°C 12.0°F-11.1°C 83% 2.2 mph SE3.5 kmh SE 2.7 mph4.3 kmh 30.35 in1027.8 mb 0.00 in0.0 mm 0.00 in0.0 mm 0.00 in0.0 mm
08:19 AM 16.3°F-8.7°C 12.0°F-11.1°C 83% 2.5 mph ESE4.0 kmh ESE 3.1 mph5.0 kmh 30.35 in1027.8 mb 0.00 in0.0 mm 0.00 in0.0 mm 0.00 in0.0 mm
08:24 AM 16.7°F-8.5°C 12.4°F-10.9°C 83% 2.0 mph ESE3.2 kmh ESE 2.0 mph3.2 kmh 30.35 in1027.8 mb 0.00 in0.0 mm 0.00 in0.0 mm 0.00 in0.0 mm
08:29 AM 16.9°F-8.4°C 12.6°F-10.8°C 83% 2.5 mph ESE4.0 kmh ESE 2.7 mph4.3 kmh 30.35 in1027.8 mb 0.00 in0.0 mm 0.00 in0.0 mm 0.00 in0.0 mm
08:34 AM 17.2°F-8.2°C 12.9°F-10.6°C 83% 2.2 mph SE3.5 kmh SE 2.5 mph4.0 kmh 30.36 in1028.1 mb 0.00 in0.0 mm 0.00 in0.0 mm 0.00 in0.0 mm
08:39 AM 17.2°F-8.2°C 12.9°F-10.6°C 83% 2.0 mph SE3.2 kmh SE 2.2 mph3.5 kmh 30.36 in1028.1 mb 0.00 in0.0 mm 0.00 in0.0 mm 0.00 in0.0 mm
08:44 AM 17.6°F-8.0°C 13.3°F-10.4°C 83% 2.2 mph SE3.5 kmh SE 2.2 mph3.5 kmh 30.36 in1028.1 mb 0.00 in0.0 mm 0.00 in0.0 mm 0.00 in0.0 mm
08:49 AM 18.0°F-7.8°C 13.6°F-10.2°C 83% 2.5 mph SE4.0 kmh SE 2.7 mph4.3 kmh 30.36 in1028.1 mb 0.00 in0.0 mm 0.00 in0.0 mm 0.00 in0.0 mm
08:54 AM 18.3°F-7.6°C 14.4°F-9.8°C 84% 2.2 mph SE3.5 kmh SE 2.5 mph4.0 kmh 30.36 in1028.1 mb 0.00 in0.0 mm 0.00 in0.0 mm 0.00 in0.0 mm
08:59 AM 18.5°F-7.5°C 14.5°F-9.7°C 84% 1.3 mph SE2.1 kmh SE 2.2 mph3.5 kmh 30.36 in1028.1 mb 0.00 in0.0 mm 0.00 in0.0 mm 0.00 in0.0 mm
09:04 AM 19.0°F-7.2°C 15.3°F-9.3°C 85% 1.8 mph SE2.9 kmh SE 2.0 mph3.2 kmh 30.36 in1028.1 mb 0.00 in0.0 mm 0.00 in0.0 mm 0.00 in0.0 mm
09:09 AM 19.2°F-7.1°C 15.3°F-9.3°C 84% 2.0 mph ESE3.2 kmh ESE 2.2 mph3.5 kmh 30.36 in1028.1 mb 0.00 in0.0 mm 0.00 in0.0 mm 0.00 in0.0 mm
09:14 AM 19.6°F-6.9°C 15.6°F-9.1°C 84% 2.0 mph ESE3.2 kmh ESE 2.2 mph3.5 kmh 30.36 in1028.1 mb 0.00 in0.0 mm 0.00 in0.0 mm 0.00 in0.0 mm
09:19 AM 19.6°F-6.9°C 15.6°F-9.1°C 84% 2.5 mph SE4.0 kmh SE 2.7 mph4.3 kmh 30.36 in1028.1 mb 0.00 in0.0 mm 0.00 in0.0 mm 0.00 in0.0 mm
09:24 AM 19.8°F-6.8°C 15.8°F-9.0°C 84% 2.0 mph ESE3.2 kmh ESE 2.5 mph4.0 kmh 30.36 in1028.1 mb 0.00 in0.0 mm 0.00 in0.0 mm 0.00 in0.0 mm
09:29 AM 19.9°F-6.7°C 15.8°F-9.0°C 84% 2.2 mph ESE3.5 kmh ESE 2.7 mph4.3 kmh 30.36 in1028.1 mb 0.00 in0.0 mm 0.00 in0.0 mm 0.00 in0.0 mm
09:34 AM 20.3°F-6.5°C 16.2°F-8.8°C 84% 1.8 mph SE2.9 kmh SE 2.0 mph3.2 kmh 30.36 in1028.1 mb 0.00 in0.0 mm 0.00 in0.0 mm 0.00 in0.0 mm
09:39 AM 20.5°F-6.4°C 16.3°F-8.7°C 84% 2.5 mph SE4.0 kmh SE 2.9 mph4.7 kmh 30.36 in1028.1 mb 0.00 in0.0 mm 0.00 in0.0 mm 0.00 in0.0 mm
09:44 AM 20.5°F-6.4°C 16.3°F-8.7°C 84% 2.2 mph SE3.5 kmh SE 2.7 mph4.3 kmh 30.36 in1028.1 mb 0.00 in0.0 mm 0.00 in0.0 mm 0.00 in0.0 mm
09:49 AM 20.8°F-6.2°C 16.7°F-8.5°C 84% 2.7 mph SE4.3 kmh SE 2.9 mph4.7 kmh 30.37 in1028.4 mb 0.00 in0.0 mm 0.00 in0.0 mm 0.00 in0.0 mm
09:54 AM 20.8°F-6.2°C 16.7°F-8.5°C 84% 1.3 mph SSE2.1 kmh SSE 1.8 mph2.9 kmh 30.37 in1028.4 mb 0.00 in0.0 mm 0.00 in0.0 mm 0.00 in0.0 mm
09:59 AM 20.8°F-6.2°C 17.1°F-8.3°C 85% 1.3 mph SE2.1 kmh SE 2.5 mph4.0 kmh 30.37 in1028.4 mb 0.00 in0.0 mm 0.00 in0.0 mm 0.00 in0.0 mm
10:04 AM 21.2°F-6.0°C 17.4°F-8.1°C 85% 2.5 mph SE4.0 kmh SE 2.7 mph4.3 kmh 30.37 in1028.4 mb 0.00 in0.0 mm 0.00 in0.0 mm 0.00 in0.0 mm
10:09 AM 21.6°F-5.8°C 17.8°F-7.9°C 85% 2.2 mph SE3.5 kmh SE 2.9 mph4.7 kmh 30.37 in1028.4 mb 0.00 in0.0 mm 0.00 in0.0 mm 0.00 in0.0 mm
10:14 AM 21.7°F-5.7°C 18.0°F-7.8°C 85% 1.1 mph SE1.8 kmh SE 1.8 mph2.9 kmh 30.37 in1028.4 mb 0.00 in0.0 mm 0.00 in0.0 mm 0.00 in0.0 mm
10:19 AM 22.1°F-5.5°C 18.3°F-7.6°C 85% 1.1 mph NNE1.8 kmh NNE 1.8 mph2.9 kmh 30.37 in1028.4 mb 0.00 in0.0 mm 0.00 in0.0 mm 0.00 in0.0 mm
10:24 AM 22.5°F-5.3°C 18.9°F-7.3°C 86% 1.1 mph NE1.8 kmh NE 1.8 mph2.9 kmh 30.37 in1028.4 mb 0.00 in0.0 mm 0.00 in0.0 mm 0.00 in0.0 mm
10:29 AM 23.0°F-5.0°C 20.3°F-6.5°C 89% 1.3 mph N2.1 kmh N 2.7 mph4.3 kmh 30.37 in1028.4 mb 0.00 in0.0 mm 0.00 in0.0 mm 0.00 in0.0 mm
10:34 AM 23.9°F-4.5°C 21.4°F-5.9°C 90% 1.3 mph N2.1 kmh N 2.0 mph3.2 kmh 30.37 in1028.4 mb 0.00 in0.0 mm 0.00 in0.0 mm 0.00 in0.0 mm
10:39 AM 24.4°F-4.2°C 21.9°F-5.6°C 90% 1.1 mph NNE1.8 kmh NNE 1.8 mph2.9 kmh 30.37 in1028.4 mb 0.00 in0.0 mm 0.00 in0.0 mm 0.00 in0.0 mm
10:44 AM 24.8°F-4.0°C 22.3°F-5.4°C 90% 1.8 mph N2.9 kmh N 2.9 mph4.7 kmh 30.37 in1028.4 mb 0.00 in0.0 mm 0.00 in0.0 mm 0.00 in0.0 mm
10:49 AM 25.2°F-3.8°C 22.6°F-5.2°C 90% 1.6 mph NNE2.6 kmh NNE 2.5 mph4.0 kmh 30.37 in1028.4 mb 0.00 in0.0 mm 0.00 in0.0 mm 0.00 in0.0 mm
10:54 AM 25.3°F-3.7°C 22.6°F-5.2°C 89% 1.1 mph N1.8 kmh N 2.0 mph3.2 kmh 30.37 in1028.4 mb 0.00 in0.0 mm 0.00 in0.0 mm 0.00 in0.0 mm
10:59 AM 25.5°F-3.6°C 22.8°F-5.1°C 89% 1.1 mph NE1.8 kmh NE 1.1 mph1.8 kmh 30.37 in1028.4 mb 0.00 in0.0 mm 0.00 in0.0 mm 0.00 in0.0 mm
11:04 AM 25.7°F-3.5°C 22.8°F-5.1°C 89% 1.8 mph N2.9 kmh N 2.7 mph4.3 kmh 30.37 in1028.4 mb 0.00 in0.0 mm 0.00 in0.0 mm 0.00 in0.0 mm
11:09 AM 25.9°F-3.4°C 22.8°F-5.1°C 88% 2.7 mph NNE4.3 kmh NNE 4.7 mph7.6 kmh 30.37 in1028.4 mb 0.00 in0.0 mm 0.00 in0.0 mm 0.00 in0.0 mm
11:14 AM 25.9°F-3.4°C 22.3°F-5.4°C 86% 1.6 mph NNW2.6 kmh NNW 2.7 mph4.3 kmh 30.37 in1028.4 mb 0.00 in0.0 mm 0.00 in0.0 mm 0.00 in0.0 mm
11:19 AM 26.1°F-3.3°C 22.1°F-5.5°C 85% 2.9 mph NNW4.7 kmh NNW 4.7 mph7.6 kmh 30.38 in1028.8 mb 0.00 in0.0 mm 0.00 in0.0 mm 0.00 in0.0 mm
11:24 AM 26.1°F-3.3°C 22.1°F-5.5°C 85% 1.3 mph NNE2.1 kmh NNE 2.5 mph4.0 kmh 30.38 in1028.8 mb 0.00 in0.0 mm 0.00 in0.0 mm 0.00 in0.0 mm
11:29 AM 26.2°F-3.2°C 22.3°F-5.4°C 85% 1.6 mph N2.6 kmh N 5.6 mph9.0 kmh 30.38 in1028.8 mb 0.00 in0.0 mm 0.00 in0.0 mm 0.00 in0.0 mm
11:34 AM 26.4°F-3.1°C 22.5°F-5.3°C 85% 2.2 mph N3.5 kmh N 2.9 mph4.7 kmh 30.38 in1028.8 mb 0.00 in0.0 mm 0.00 in0.0 mm 0.00 in0.0 mm
11:39 AM 26.6°F-3.0°C 22.5°F-5.3°C 84% 1.3 mph N2.1 kmh N 4.0 mph6.4 kmh 30.38 in1028.8 mb 0.00 in0.0 mm 0.00 in0.0 mm 0.00 in0.0 mm
11:44 AM 26.8°F-2.9°C 22.6°F-5.2°C 84% 2.0 mph NE3.2 kmh NE 2.9 mph4.7 kmh 30.38 in1028.8 mb 0.00 in0.0 mm 0.00 in0.0 mm 0.00 in0.0 mm
11:49 AM 26.8°F-2.9°C 22.3°F-5.4°C 83% 2.7 mph NNE4.3 kmh NNE 4.3 mph6.9 kmh 30.37 in1028.4 mb 0.00 in0.0 mm 0.00 in0.0 mm 0.00 in0.0 mm
11:54 AM 26.8°F-2.9°C 22.3°F-5.4°C 83% 1.8 mph NNE2.9 kmh NNE 2.7 mph4.3 kmh 30.37 in1028.4 mb 0.00 in0.0 mm 0.00 in0.0 mm 0.00 in0.0 mm
11:59 AM 27.0°F-2.8°C 21.9°F-5.6°C 81% 2.5 mph NE4.0 kmh NE 3.6 mph5.8 kmh 30.37 in1028.4 mb 0.00 in0.0 mm 0.00 in0.0 mm 0.00 in0.0 mm
12:04 PM 27.1°F-2.7°C 22.1°F-5.5°C 81% 2.0 mph NNE3.2 kmh NNE 3.1 mph5.0 kmh 30.37 in1028.4 mb 0.00 in0.0 mm 0.00 in0.0 mm 0.00 in0.0 mm
12:09 PM 27.1°F-2.7°C 22.1°F-5.5°C 81% 2.2 mph NNE3.5 kmh NNE 3.4 mph5.5 kmh 30.37 in1028.4 mb 0.00 in0.0 mm 0.00 in0.0 mm 0.00 in0.0 mm
12:14 PM 27.1°F-2.7°C 22.1°F-5.5°C 81% 1.6 mph N2.6 kmh N 2.2 mph3.5 kmh 30.37 in1028.4 mb 0.00 in0.0 mm 0.00 in0.0 mm 0.00 in0.0 mm
12:19 PM 27.3°F-2.6°C 22.3°F-5.4°C 81% 2.0 mph N3.2 kmh N 2.9 mph4.7 kmh 30.37 in1028.4 mb 0.00 in0.0 mm 0.00 in0.0 mm 0.00 in0.0 mm
12:24 PM 27.3°F-2.6°C 21.9°F-5.6°C 80% 2.0 mph NE3.2 kmh NE 2.9 mph4.7 kmh 30.37 in1028.4 mb 0.00 in0.0 mm 0.00 in0.0 mm 0.00 in0.0 mm
12:29 PM 27.1°F-2.7°C 21.7°F-5.7°C 80% 1.1 mph N1.8 kmh N 2.0 mph3.2 kmh 30.37 in1028.4 mb 0.00 in0.0 mm 0.00 in0.0 mm 0.00 in0.0 mm
12:34 PM 27.1°F-2.7°C 21.7°F-5.7°C 80% 1.8 mph N2.9 kmh N 3.6 mph5.8 kmh 30.36 in1028.1 mb 0.00 in0.0 mm 0.00 in0.0 mm 0.00 in0.0 mm
12:39 PM 27.1°F-2.7°C 21.7°F-5.7°C 80% 2.7 mph NNE4.3 kmh NNE 4.0 mph6.4 kmh 30.36 in1028.1 mb 0.00 in0.0 mm 0.00 in0.0 mm 0.00 in0.0 mm
12:44 PM 27.1°F-2.7°C 21.7°F-5.7°C 80% 3.1 mph NNE5.0 kmh NNE 4.9 mph7.9 kmh 30.36 in1028.1 mb 0.00 in0.0 mm 0.00 in0.0 mm 0.00 in0.0 mm
12:49 PM 27.3°F-2.6°C 21.9°F-5.6°C 80% 2.2 mph N3.5 kmh N 3.6 mph5.8 kmh 30.36 in1028.1 mb 0.00 in0.0 mm 0.00 in0.0 mm 0.00 in0.0 mm
12:54 PM 27.5°F-2.5°C 22.1°F-5.5°C 80% 2.2 mph NE3.5 kmh NE 3.8 mph6.1 kmh 30.36 in1028.1 mb 0.00 in0.0 mm 0.00 in0.0 mm 0.00 in0.0 mm
12:59 PM 27.7°F-2.4°C 22.3°F-5.4°C 80% 2.0 mph N3.2 kmh N 3.1 mph5.0 kmh 30.35 in1027.8 mb 0.00 in0.0 mm 0.00 in0.0 mm 0.00 in0.0 mm
01:04 PM 27.7°F-2.4°C 22.3°F-5.4°C 80% 0.9 mph N1.4 kmh N 1.8 mph2.9 kmh 30.35 in1027.8 mb 0.00 in0.0 mm 0.00 in0.0 mm 0.00 in0.0 mm
01:09 PM 27.9°F-2.3°C 22.3°F-5.4°C 79% 3.1 mph NNE5.0 kmh NNE 4.0 mph6.4 kmh 30.35 in1027.8 mb 0.00 in0.0 mm 0.00 in0.0 mm 0.00 in0.0 mm
01:14 PM 28.0°F-2.2°C 22.3°F-5.4°C 79% 1.6 mph N2.6 kmh N 3.6 mph5.8 kmh 30.34 in1027.4 mb 0.00 in0.0 mm 0.00 in0.0 mm 0.00 in0.0 mm
01:19 PM 28.2°F-2.1°C 22.5°F-5.3°C 79% 2.9 mph N4.7 kmh N 4.5 mph7.2 kmh 30.34 in1027.4 mb 0.00 in0.0 mm 0.00 in0.0 mm 0.00 in0.0 mm
01:24 PM 28.2°F-2.1°C 22.5°F-5.3°C 79% 1.6 mph N2.6 kmh N 2.2 mph3.5 kmh 30.34 in1027.4 mb 0.00 in0.0 mm 0.00 in0.0 mm 0.00 in0.0 mm
01:29 PM 28.2°F-2.1°C 22.5°F-5.3°C 79% 1.6 mph NE2.6 kmh NE 2.2 mph3.5 kmh 30.34 in1027.4 mb 0.00 in0.0 mm 0.00 in0.0 mm 0.00 in0.0 mm
01:34 PM 28.4°F-2.0°C 22.6°F-5.2°C 79% 3.1 mph NNE5.0 kmh NNE 4.5 mph7.2 kmh 30.33 in1027.1 mb 0.00 in0.0 mm 0.00 in0.0 mm 0.00 in0.0 mm
01:39 PM 28.4°F-2.0°C 22.6°F-5.2°C 79% 2.7 mph N4.3 kmh N 3.8 mph6.1 kmh 30.33 in1027.1 mb 0.00 in0.0 mm 0.00 in0.0 mm 0.00 in0.0 mm
01:44 PM 28.6°F-1.9°C 22.3°F-5.4°C 77% 0.7 mph S1.1 kmh S 1.3 mph2.1 kmh 30.33 in1027.1 mb 0.00 in0.0 mm 0.00 in0.0 mm 0.00 in0.0 mm
01:49 PM 28.6°F-1.9°C 22.8°F-5.1°C 79% 1.3 mph SW2.1 kmh SW 2.5 mph4.0 kmh 30.32 in1026.8 mb 0.00 in0.0 mm 0.00 in0.0 mm 0.00 in0.0 mm
01:54 PM 28.4°F-2.0°C 22.6°F-5.2°C 79% 1.8 mph N2.9 kmh N 2.5 mph4.0 kmh 30.32 in1026.8 mb 0.00 in0.0 mm 0.00 in0.0 mm 0.00 in0.0 mm
01:59 PM 28.6°F-1.9°C 22.8°F-5.1°C 79% 1.3 mph WNW2.1 kmh WNW 2.7 mph4.3 kmh 30.32 in1026.8 mb 0.00 in0.0 mm 0.00 in0.0 mm 0.00 in0.0 mm
02:04 PM 28.4°F-2.0°C 22.6°F-5.2°C 79% 2.9 mph N4.7 kmh N 4.3 mph6.9 kmh 30.32 in1026.8 mb 0.00 in0.0 mm 0.00 in0.0 mm 0.00 in0.0 mm
02:09 PM 28.2°F-2.1°C 21.9°F-5.6°C 77% 2.5 mph NNW4.0 kmh NNW 3.6 mph5.8 kmh 30.32 in1026.8 mb 0.00 in0.0 mm 0.00 in0.0 mm 0.00 in0.0 mm
02:14 PM 28.2°F-2.1°C 21.9°F-5.6°C 77% 1.8 mph WNW2.9 kmh WNW 4.7 mph7.6 kmh 30.32 in1026.8 mb 0.00 in0.0 mm 0.00 in0.0 mm 0.00 in0.0 mm
02:19 PM 28.0°F-2.2°C 21.4°F-5.9°C 76% 1.1 mph N1.8 kmh N 1.6 mph2.6 kmh 30.31 in1026.4 mb 0.00 in0.0 mm 0.00 in0.0 mm 0.00 in0.0 mm
02:24 PM 28.2°F-2.1°C 21.9°F-5.6°C 77% 1.3 mph W2.1 kmh W 2.7 mph4.3 kmh 30.31 in1026.4 mb 0.00 in0.0 mm 0.00 in0.0 mm 0.00 in0.0 mm
02:29 PM 28.4°F-2.0°C 22.1°F-5.5°C 77% 1.8 mph NNE2.9 kmh NNE 2.7 mph4.3 kmh 30.31 in1026.4 mb 0.00 in0.0 mm 0.00 in0.0 mm 0.00 in0.0 mm
02:34 PM 28.6°F-1.9°C 22.3°F-5.4°C 77% 1.8 mph NE2.9 kmh NE 3.1 mph5.0 kmh 30.31 in1026.4 mb 0.00 in0.0 mm 0.00 in0.0 mm 0.00 in0.0 mm
02:39 PM 28.4°F-2.0°C 21.7°F-5.7°C 76% 1.3 mph N2.1 kmh N 2.0 mph3.2 kmh 30.31 in1026.4 mb 0.00 in0.0 mm 0.00 in0.0 mm 0.00 in0.0 mm
02:44 PM 28.4°F-2.0°C 22.1°F-5.5°C 77% 1.1 mph SE1.8 kmh SE 1.8 mph2.9 kmh 30.31 in1026.4 mb 0.00 in0.0 mm 0.00 in0.0 mm 0.00 in0.0 mm
02:49 PM 28.6°F-1.9°C 22.3°F-5.4°C 77% 0.4 mph ENE0.6 kmh ENE 1.6 mph2.6 kmh 30.30 in1026.1 mb 0.00 in0.0 mm 0.00 in0.0 mm 0.00 in0.0 mm
02:54 PM 28.6°F-1.9°C 22.3°F-5.4°C 77% 2.0 mph N3.2 kmh N 3.4 mph5.5 kmh 30.31 in1026.4 mb 0.00 in0.0 mm 0.00 in0.0 mm 0.00 in0.0 mm
02:59 PM 28.6°F-1.9°C 22.3°F-5.4°C 77% 0.2 mph ENE0.3 kmh ENE 1.1 mph1.8 kmh 30.31 in1026.4 mb 0.00 in0.0 mm 0.00 in0.0 mm 0.00 in0.0 mm
03:04 PM 28.8°F-1.8°C 22.5°F-5.3°C 77% 1.6 mph N2.6 kmh N 2.0 mph3.2 kmh 30.30 in1026.1 mb 0.00 in0.0 mm 0.00 in0.0 mm 0.00 in0.0 mm
03:09 PM 28.6°F-1.9°C 22.3°F-5.4°C 77% 1.3 mph WSW2.1 kmh WSW 2.7 mph4.3 kmh 30.30 in1026.1 mb 0.00 in0.0 mm 0.00 in0.0 mm 0.00 in0.0 mm
03:14 PM 28.6°F-1.9°C 22.3°F-5.4°C 77% 3.1 mph N5.0 kmh N 4.5 mph7.2 kmh 30.31 in1026.4 mb 0.00 in0.0 mm 0.00 in0.0 mm 0.00 in0.0 mm
03:19 PM 28.6°F-1.9°C 22.3°F-5.4°C 77% 2.2 mph NNE3.5 kmh NNE 3.6 mph5.8 kmh 30.30 in1026.1 mb 0.00 in0.0 mm 0.00 in0.0 mm 0.00 in0.0 mm
03:24 PM 28.2°F-2.1°C 21.6°F-5.8°C 76% 1.8 mph NNE2.9 kmh NNE 2.2 mph3.5 kmh 30.30 in1026.1 mb 0.00 in0.0 mm 0.00 in0.0 mm 0.00 in0.0 mm
03:29 PM 27.9°F-2.3°C 21.2°F-6.0°C 76% 1.3 mph NNE2.1 kmh NNE 2.2 mph3.5 kmh 30.30 in1026.1 mb 0.00 in0.0 mm 0.00 in0.0 mm 0.00 in0.0 mm
03:34 PM 27.9°F-2.3°C 21.2°F-6.0°C 76% 2.0 mph N3.2 kmh N 3.1 mph5.0 kmh 30.30 in1026.1 mb 0.00 in0.0 mm 0.00 in0.0 mm 0.00 in0.0 mm
03:39 PM 27.9°F-2.3°C 21.2°F-6.0°C 76% 2.0 mph NE3.2 kmh NE 2.7 mph4.3 kmh 30.30 in1026.1 mb 0.00 in0.0 mm 0.00 in0.0 mm 0.00 in0.0 mm
03:44 PM 27.9°F-2.3°C 21.2°F-6.0°C 76% 1.8 mph NE2.9 kmh NE 2.7 mph4.3 kmh 30.30 in1026.1 mb 0.00 in0.0 mm 0.00 in0.0 mm 0.00 in0.0 mm
03:49 PM 28.0°F-2.2°C 21.4°F-5.9°C 76% 1.6 mph NE2.6 kmh NE 2.2 mph3.5 kmh 30.30 in1026.1 mb 0.00 in0.0 mm 0.00 in0.0 mm 0.00 in0.0 mm
03:54 PM 27.9°F-2.3°C 21.6°F-5.8°C 77% 0.2 mph SSE0.3 kmh SSE 1.1 mph1.8 kmh 30.30 in1026.1 mb 0.00 in0.0 mm 0.00 in0.0 mm 0.00 in0.0 mm
03:59 PM 28.2°F-2.1°C 21.9°F-5.6°C 77% 0.7 mph SE1.1 kmh SE 1.6 mph2.6 kmh 30.30 in1026.1 mb 0.00 in0.0 mm 0.00 in0.0 mm 0.00 in0.0 mm
04:04 PM 28.4°F-2.0°C 22.1°F-5.5°C 77% 1.1 mph S1.8 kmh S 2.0 mph3.2 kmh 30.30 in1026.1 mb 0.00 in0.0 mm 0.00 in0.0 mm 0.00 in0.0 mm
04:09 PM 28.6°F-1.9°C 22.3°F-5.4°C 77% 0.7 mph N1.1 kmh N 1.1 mph1.8 kmh 30.29 in1025.7 mb 0.00 in0.0 mm 0.00 in0.0 mm 0.00 in0.0 mm
04:14 PM 28.6°F-1.9°C 22.3°F-5.4°C 77% 1.8 mph N2.9 kmh N 2.5 mph4.0 kmh 30.29 in1025.7 mb 0.00 in0.0 mm 0.00 in0.0 mm 0.00 in0.0 mm
04:19 PM 28.4°F-2.0°C 22.1°F-5.5°C 77% 2.5 mph NNE4.0 kmh NNE 3.1 mph5.0 kmh 30.29 in1025.7 mb 0.00 in0.0 mm 0.00 in0.0 mm 0.00 in0.0 mm
04:24 PM 28.2°F-2.1°C 21.6°F-5.8°C 76% 1.3 mph N2.1 kmh N 1.8 mph2.9 kmh 30.29 in1025.7 mb 0.00 in0.0 mm 0.00 in0.0 mm 0.00 in0.0 mm
04:29 PM 28.4°F-2.0°C 22.1°F-5.5°C 77% 1.3 mph N2.1 kmh N 3.4 mph5.5 kmh 30.29 in1025.7 mb 0.00 in0.0 mm 0.00 in0.0 mm 0.00 in0.0 mm
04:34 PM 28.0°F-2.2°C 21.7°F-5.7°C 77% 1.8 mph NNE2.9 kmh NNE 2.9 mph4.7 kmh 30.29 in1025.7 mb 0.00 in0.0 mm 0.00 in0.0 mm 0.00 in0.0 mm
04:39 PM 27.9°F-2.3°C 21.6°F-5.8°C 77% 1.1 mph NE1.8 kmh NE 2.0 mph3.2 kmh 30.29 in1025.7 mb 0.00 in0.0 mm 0.00 in0.0 mm 0.00 in0.0 mm
04:44 PM 27.9°F-2.3°C 21.6°F-5.8°C 77% 1.1 mph N1.8 kmh N 2.5 mph4.0 kmh 30.29 in1025.7 mb 0.00 in0.0 mm 0.00 in0.0 mm 0.00 in0.0 mm
04:49 PM 27.9°F-2.3°C 21.6°F-5.8°C 77% 2.7 mph S4.3 kmh S 4.5 mph7.2 kmh 30.29 in1025.7 mb 0.00 in0.0 mm 0.00 in0.0 mm 0.00 in0.0 mm
04:54 PM 27.7°F-2.4°C 21.4°F-5.9°C 77% 0.9 mph S1.4 kmh S 2.2 mph3.5 kmh 30.29 in1025.7 mb 0.00 in0.0 mm 0.00 in0.0 mm 0.00 in0.0 mm
04:59 PM 27.7°F-2.4°C 21.4°F-5.9°C 77% 1.3 mph S2.1 kmh S 2.9 mph4.7 kmh 30.29 in1025.7 mb 0.00 in0.0 mm 0.00 in0.0 mm 0.00 in0.0 mm
05:04 PM 27.7°F-2.4°C 21.4°F-5.9°C 77% 1.8 mph S2.9 kmh S 2.7 mph4.3 kmh 30.29 in1025.7 mb 0.00 in0.0 mm 0.00 in0.0 mm 0.00 in0.0 mm
05:09 PM 27.5°F-2.5°C 21.2°F-6.0°C 77% 0.2 mph ENE0.3 kmh ENE 1.8 mph2.9 kmh 30.28 in1025.4 mb 0.00 in0.0 mm 0.00 in0.0 mm 0.00 in0.0 mm
05:14 PM 27.3°F-2.6°C 21.0°F-6.1°C 77% 0.4 mph N0.6 kmh N 1.1 mph1.8 kmh 30.28 in1025.4 mb 0.00 in0.0 mm 0.00 in0.0 mm 0.00 in0.0 mm
05:19 PM 27.1°F-2.7°C 20.8°F-6.2°C 77% 0.7 mph N1.1 kmh N 1.3 mph2.1 kmh 30.28 in1025.4 mb 0.00 in0.0 mm 0.00 in0.0 mm 0.00 in0.0 mm
05:24 PM 27.1°F-2.7°C 20.8°F-6.2°C 77% 1.1 mph N1.8 kmh N 1.6 mph2.6 kmh 30.28 in1025.4 mb 0.00 in0.0 mm 0.00 in0.0 mm 0.00 in0.0 mm
05:29 PM 27.1°F-2.7°C 20.8°F-6.2°C 77% 0.7 mph NNE1.1 kmh NNE 1.6 mph2.6 kmh 30.28 in1025.4 mb 0.00 in0.0 mm 0.00 in0.0 mm 0.00 in0.0 mm
05:34 PM 27.1°F-2.7°C 20.8°F-6.2°C 77% 1.1 mph NNE1.8 kmh NNE 2.9 mph4.7 kmh 30.28 in1025.4 mb 0.00 in0.0 mm 0.00 in0.0 mm 0.00 in0.0 mm
05:39 PM 27.1°F-2.7°C 20.8°F-6.2°C 77% 0.2 mph W0.3 kmh W 1.6 mph2.6 kmh 30.28 in1025.4 mb 0.00 in0.0 mm 0.00 in0.0 mm 0.00 in0.0 mm
05:44 PM 26.8°F-2.9°C 20.5°F-6.4°C 77% 1.6 mph W2.6 kmh W 3.6 mph5.8 kmh 30.28 in1025.4 mb 0.00 in0.0 mm 0.00 in0.0 mm 0.00 in0.0 mm
05:49 PM 26.8°F-2.9°C 21.2°F-6.0°C 79% 0.9 mph SE1.4 kmh SE 2.0 mph3.2 kmh 30.28 in1025.4 mb 0.00 in0.0 mm 0.00 in0.0 mm 0.00 in0.0 mm
05:54 PM 26.6°F-3.0°C 21.0°F-6.1°C 79% 0.7 mph N1.1 kmh N 1.8 mph2.9 kmh 30.28 in1025.4 mb 0.00 in0.0 mm 0.00 in0.0 mm 0.00 in0.0 mm
05:59 PM 26.8°F-2.9°C 21.2°F-6.0°C 79% 1.1 mph N1.8 kmh N 2.7 mph4.3 kmh 30.28 in1025.4 mb 0.00 in0.0 mm 0.00 in0.0 mm 0.00 in0.0 mm
06:04 PM 26.8°F-2.9°C 21.4°F-5.9°C 80% 1.1 mph NE1.8 kmh NE 3.8 mph6.1 kmh 30.28 in1025.4 mb 0.00 in0.0 mm 0.00 in0.0 mm 0.00 in0.0 mm
06:09 PM 26.8°F-2.9°C 21.2°F-6.0°C 79% Calm Calm -- 30.28 in1025.4 mb 0.00 in0.0 mm 0.00 in0.0 mm 0.00 in0.0 mm
06:14 PM 26.8°F-2.9°C 21.2°F-6.0°C 79% 0.7 mph E1.1 kmh E 1.8 mph2.9 kmh 30.28 in1025.4 mb 0.00 in0.0 mm 0.00 in0.0 mm 0.00 in0.0 mm
06:19 PM 26.6°F-3.0°C 21.0°F-6.1°C 79% 1.3 mph S2.1 kmh S 2.5 mph4.0 kmh 30.28 in1025.4 mb 0.00 in0.0 mm 0.00 in0.0 mm 0.00 in0.0 mm
06:24 PM 26.6°F-3.0°C 21.0°F-6.1°C 79% 1.8 mph SSE2.9 kmh SSE 2.7 mph4.3 kmh 30.28 in1025.4 mb 0.00 in0.0 mm 0.00 in0.0 mm 0.00 in0.0 mm
06:29 PM 26.4°F-3.1°C 20.8°F-6.2°C 79% 0.9 mph NNW1.4 kmh NNW 2.7 mph4.3 kmh 30.28 in1025.4 mb 0.00 in0.0 mm 0.00 in0.0 mm 0.00 in0.0 mm
06:34 PM 26.6°F-3.0°C 21.2°F-6.0°C 80% 0.2 mph S0.3 kmh S 1.1 mph1.8 kmh 30.29 in1025.7 mb 0.00 in0.0 mm 0.00 in0.0 mm 0.00 in0.0 mm
06:39 PM 26.6°F-3.0°C 21.2°F-6.0°C 80% 0.2 mph E0.3 kmh E 1.3 mph2.1 kmh 30.29 in1025.7 mb 0.00 in0.0 mm 0.00 in0.0 mm 0.00 in0.0 mm
06:44 PM 26.8°F-2.9°C 21.4°F-5.9°C 80% 1.3 mph SE2.1 kmh SE 1.8 mph2.9 kmh 30.29 in1025.7 mb 0.00 in0.0 mm 0.00 in0.0 mm 0.00 in0.0 mm
06:49 PM 26.6°F-3.0°C 21.0°F-6.1°C 79% 0.7 mph NE1.1 kmh NE 1.6 mph2.6 kmh 30.29 in1025.7 mb 0.00 in0.0 mm 0.00 in0.0 mm 0.00 in0.0 mm
06:54 PM 26.4°F-3.1°C 20.8°F-6.2°C 79% 0.2 mph N0.3 kmh N 1.1 mph1.8 kmh 30.29 in1025.7 mb 0.00 in0.0 mm 0.00 in0.0 mm 0.00 in0.0 mm
06:59 PM 26.4°F-3.1°C 20.8°F-6.2°C 79% 1.3 mph NNE2.1 kmh NNE 2.7 mph4.3 kmh 30.30 in1026.1 mb 0.00 in0.0 mm 0.00 in0.0 mm 0.00 in0.0 mm
07:04 PM 26.4°F-3.1°C 21.0°F-6.1°C 80% 2.0 mph S3.2 kmh S 2.7 mph4.3 kmh 30.30 in1026.1 mb 0.00 in0.0 mm 0.00 in0.0 mm 0.00 in0.0 mm
07:09 PM 26.4°F-3.1°C 21.0°F-6.1°C 80% 0.4 mph N0.6 kmh N 1.6 mph2.6 kmh 30.30 in1026.1 mb 0.00 in0.0 mm 0.00 in0.0 mm 0.00 in0.0 mm
07:14 PM 26.4°F-3.1°C 21.0°F-6.1°C 80% 1.1 mph N1.8 kmh N 2.0 mph3.2 kmh 30.30 in1026.1 mb 0.00 in0.0 mm 0.00 in0.0 mm 0.00 in0.0 mm
07:19 PM 26.4°F-3.1°C 21.0°F-6.1°C 80% 0.2 mph SSE0.3 kmh SSE 0.9 mph1.4 kmh 30.30 in1026.1 mb 0.00 in0.0 mm 0.00 in0.0 mm 0.00 in0.0 mm
07:24 PM 26.6°F-3.0°C 21.2°F-6.0°C 80% 0.7 mph WNW1.1 kmh WNW 2.0 mph3.2 kmh 30.30 in1026.1 mb 0.00 in0.0 mm 0.00 in0.0 mm 0.00 in0.0 mm
07:29 PM 26.8°F-2.9°C 21.4°F-5.9°C 80% Calm Calm 0.4 mph0.6 kmh 30.30 in1026.1 mb 0.00 in0.0 mm 0.00 in0.0 mm 0.00 in0.0 mm
07:34 PM 26.6°F-3.0°C 21.2°F-6.0°C 80% 1.3 mph NNE2.1 kmh NNE 2.2 mph3.5 kmh 30.30 in1026.1 mb 0.00 in0.0 mm 0.00 in0.0 mm 0.00 in0.0 mm
07:39 PM 26.4°F-3.1°C 21.0°F-6.1°C 80% 1.1 mph N1.8 kmh N 1.3 mph2.1 kmh 30.30 in1026.1 mb 0.00 in0.0 mm 0.00 in0.0 mm 0.00 in0.0 mm
07:44 PM 26.6°F-3.0°C 21.2°F-6.0°C 80% 2.2 mph S3.5 kmh S 4.0 mph6.4 kmh 30.30 in1026.1 mb 0.00 in0.0 mm 0.00 in0.0 mm 0.00 in0.0 mm
07:49 PM 26.6°F-3.0°C 21.2°F-6.0°C 80% 1.1 mph NE1.8 kmh NE 2.0 mph3.2 kmh 30.30 in1026.1 mb 0.00 in0.0 mm 0.00 in0.0 mm 0.00 in0.0 mm
07:54 PM 26.6°F-3.0°C 21.2°F-6.0°C 80% 0.9 mph NE1.4 kmh NE 1.8 mph2.9 kmh 30.30 in1026.1 mb 0.00 in0.0 mm 0.00 in0.0 mm 0.00 in0.0 mm
07:59 PM 26.8°F-2.9°C 21.4°F-5.9°C 80% 1.6 mph N2.6 kmh N 2.7 mph4.3 kmh 30.30 in1026.1 mb 0.00 in0.0 mm 0.00 in0.0 mm 0.00 in0.0 mm
08:04 PM 26.6°F-3.0°C 21.0°F-6.1°C 79% 1.8 mph NNW2.9 kmh NNW 4.0 mph6.4 kmh 30.30 in1026.1 mb 0.00 in0.0 mm 0.00 in0.0 mm 0.00 in0.0 mm
08:09 PM 26.6°F-3.0°C 21.0°F-6.1°C 79% 1.3 mph SSE2.1 kmh SSE 2.5 mph4.0 kmh 30.30 in1026.1 mb 0.00 in0.0 mm 0.00 in0.0 mm 0.00 in0.0 mm
08:14 PM 26.4°F-3.1°C 20.8°F-6.2°C 79% 2.5 mph NW4.0 kmh NW 4.0 mph6.4 kmh 30.30 in1026.1 mb 0.00 in0.0 mm 0.00 in0.0 mm 0.00 in0.0 mm
08:19 PM 26.4°F-3.1°C 20.8°F-6.2°C 79% 0.7 mph ESE1.1 kmh ESE 1.6 mph2.6 kmh 30.30 in1026.1 mb 0.00 in0.0 mm 0.00 in0.0 mm 0.00 in0.0 mm
08:24 PM 26.2°F-3.2°C 20.7°F-6.3°C 79% 0.4 mph S0.6 kmh S 1.3 mph2.1 kmh 30.30 in1026.1 mb 0.00 in0.0 mm 0.00 in0.0 mm 0.00 in0.0 mm
08:29 PM 26.4°F-3.1°C 20.8°F-6.2°C 79% 1.6 mph SSE2.6 kmh SSE 2.7 mph4.3 kmh 30.30 in1026.1 mb 0.00 in0.0 mm 0.00 in0.0 mm 0.00 in0.0 mm
08:34 PM 26.2°F-3.2°C 20.7°F-6.3°C 79% 2.7 mph SSW4.3 kmh SSW 4.0 mph6.4 kmh 30.30 in1026.1 mb 0.00 in0.0 mm 0.00 in0.0 mm 0.00 in0.0 mm
08:39 PM 26.1°F-3.3°C 20.5°F-6.4°C 79% 1.8 mph S2.9 kmh S 2.5 mph4.0 kmh 30.30 in1026.1 mb 0.00 in0.0 mm 0.00 in0.0 mm 0.00 in0.0 mm
08:44 PM 25.9°F-3.4°C 20.3°F-6.5°C 79% 1.1 mph S1.8 kmh S 2.2 mph3.5 kmh 30.30 in1026.1 mb 0.00 in0.0 mm 0.00 in0.0 mm 0.00 in0.0 mm
08:49 PM 25.7°F-3.5°C 20.1°F-6.6°C 79% 0.9 mph SE1.4 kmh SE 2.7 mph4.3 kmh 30.30 in1026.1 mb 0.00 in0.0 mm 0.00 in0.0 mm 0.00 in0.0 mm
08:54 PM 25.9°F-3.4°C 20.3°F-6.5°C 79% 2.0 mph S3.2 kmh S 2.9 mph4.7 kmh 30.29 in1025.7 mb 0.00 in0.0 mm 0.00 in0.0 mm 0.00 in0.0 mm
08:59 PM 25.7°F-3.5°C 20.1°F-6.6°C 79% 1.6 mph SSW2.6 kmh SSW 2.9 mph4.7 kmh 30.30 in1026.1 mb 0.00 in0.0 mm 0.00 in0.0 mm 0.00 in0.0 mm
09:04 PM 25.5°F-3.6°C 19.9°F-6.7°C 79% 0.9 mph SE1.4 kmh SE 1.3 mph2.1 kmh 30.30 in1026.1 mb 0.00 in0.0 mm 0.00 in0.0 mm 0.00 in0.0 mm
09:09 PM 25.3°F-3.7°C 19.8°F-6.8°C 79% 0.4 mph SE0.6 kmh SE 1.8 mph2.9 kmh 30.30 in1026.1 mb 0.00 in0.0 mm 0.00 in0.0 mm 0.00 in0.0 mm
09:14 PM 25.3°F-3.7°C 19.8°F-6.8°C 79% 1.8 mph S2.9 kmh S 2.7 mph4.3 kmh 30.30 in1026.1 mb 0.00 in0.0 mm 0.00 in0.0 mm 0.00 in0.0 mm
09:19 PM 25.2°F-3.8°C 19.6°F-6.9°C 79% 1.1 mph SE1.8 kmh SE 1.6 mph2.6 kmh 30.30 in1026.1 mb 0.00 in0.0 mm 0.00 in0.0 mm 0.00 in0.0 mm
09:24 PM 25.2°F-3.8°C 19.6°F-6.9°C 79% 1.8 mph S2.9 kmh S 2.7 mph4.3 kmh 30.29 in1025.7 mb 0.00 in0.0 mm 0.00 in0.0 mm 0.00 in0.0 mm
09:29 PM 25.0°F-3.9°C 19.4°F-7.0°C 79% 0.7 mph NE1.1 kmh NE 2.2 mph3.5 kmh 30.30 in1026.1 mb 0.00 in0.0 mm 0.00 in0.0 mm 0.00 in0.0 mm
09:34 PM 25.0°F-3.9°C 19.8°F-6.8°C 80% 0.9 mph S1.4 kmh S 1.6 mph2.6 kmh 30.29 in1025.7 mb 0.00 in0.0 mm 0.00 in0.0 mm 0.00 in0.0 mm
09:39 PM 25.0°F-3.9°C 19.4°F-7.0°C 79% 0.9 mph WNW1.4 kmh WNW 2.0 mph3.2 kmh 30.29 in1025.7 mb 0.00 in0.0 mm 0.00 in0.0 mm 0.00 in0.0 mm
09:44 PM 24.6°F-4.1°C 19.4°F-7.0°C 80% 2.7 mph S4.3 kmh S 3.6 mph5.8 kmh 30.29 in1025.7 mb 0.00 in0.0 mm 0.00 in0.0 mm 0.00 in0.0 mm
09:49 PM 24.8°F-4.0°C 19.6°F-6.9°C 80% 1.1 mph S1.8 kmh S 2.0 mph3.2 kmh 30.30 in1026.1 mb 0.00 in0.0 mm 0.00 in0.0 mm 0.00 in0.0 mm
09:54 PM 24.8°F-4.0°C 19.6°F-6.9°C 80% 1.8 mph S2.9 kmh S 2.9 mph4.7 kmh 30.29 in1025.7 mb 0.00 in0.0 mm 0.00 in0.0 mm 0.00 in0.0 mm
09:59 PM 24.8°F-4.0°C 19.6°F-6.9°C 80% 1.6 mph SSE2.6 kmh SSE 3.4 mph5.5 kmh 30.29 in1025.7 mb 0.00 in0.0 mm 0.00 in0.0 mm 0.00 in0.0 mm
10:04 PM 24.8°F-4.0°C 19.6°F-6.9°C 80% 2.2 mph S3.5 kmh S 4.7 mph7.6 kmh 30.29 in1025.7 mb 0.00 in0.0 mm 0.00 in0.0 mm 0.00 in0.0 mm
10:09 PM 24.6°F-4.1°C 19.0°F-7.2°C 79% 1.8 mph S2.9 kmh S 4.0 mph6.4 kmh 30.29 in1025.7 mb 0.00 in0.0 mm 0.00 in0.0 mm 0.00 in0.0 mm
10:14 PM 24.4°F-4.2°C 19.2°F-7.1°C 80% 2.5 mph S4.0 kmh S 4.5 mph7.2 kmh 30.29 in1025.7 mb 0.00 in0.0 mm 0.00 in0.0 mm 0.00 in0.0 mm
10:19 PM 24.4°F-4.2°C 19.2°F-7.1°C 80% 1.8 mph SSW2.9 kmh SSW 2.5 mph4.0 kmh 30.29 in1025.7 mb 0.00 in0.0 mm 0.00 in0.0 mm 0.00 in0.0 mm
10:24 PM 24.1°F-4.4°C 18.9°F-7.3°C 80% 1.8 mph SSE2.9 kmh SSE 3.6 mph5.8 kmh 30.30 in1026.1 mb 0.00 in0.0 mm 0.00 in0.0 mm 0.00 in0.0 mm
10:29 PM 24.1°F-4.4°C 18.9°F-7.3°C 80% 0.7 mph S1.1 kmh S 1.8 mph2.9 kmh 30.30 in1026.1 mb 0.00 in0.0 mm 0.00 in0.0 mm 0.00 in0.0 mm
10:34 PM 24.1°F-4.4°C 18.9°F-7.3°C 80% Calm Calm -- 30.30 in1026.1 mb 0.00 in0.0 mm 0.00 in0.0 mm 0.00 in0.0 mm
10:39 PM 24.1°F-4.4°C 18.9°F-7.3°C 80% 2.0 mph S3.2 kmh S 3.4 mph5.5 kmh 30.30 in1026.1 mb 0.00 in0.0 mm 0.00 in0.0 mm 0.00 in0.0 mm
10:44 PM 23.9°F-4.5°C 18.7°F-7.4°C 80% 1.1 mph ESE1.8 kmh ESE 1.8 mph2.9 kmh 30.30 in1026.1 mb 0.00 in0.0 mm 0.00 in0.0 mm 0.00 in0.0 mm
10:49 PM 23.7°F-4.6°C 18.5°F-7.5°C 80% 0.7 mph ENE1.1 kmh ENE 1.3 mph2.1 kmh 30.30 in1026.1 mb 0.00 in0.0 mm 0.00 in0.0 mm 0.00 in0.0 mm
10:54 PM 23.7°F-4.6°C 18.5°F-7.5°C 80% 0.4 mph SSE0.6 kmh SSE 1.1 mph1.8 kmh 30.30 in1026.1 mb 0.00 in0.0 mm 0.00 in0.0 mm 0.00 in0.0 mm
10:59 PM 23.5°F-4.7°C 18.3°F-7.6°C 80% 1.6 mph S2.6 kmh S 2.5 mph4.0 kmh 30.30 in1026.1 mb 0.00 in0.0 mm 0.00 in0.0 mm 0.00 in0.0 mm
11:04 PM 23.4°F-4.8°C 18.1°F-7.7°C 80% 1.6 mph S2.6 kmh S 2.2 mph3.5 kmh 30.30 in1026.1 mb 0.00 in0.0 mm 0.00 in0.0 mm 0.00 in0.0 mm
11:09 PM 23.4°F-4.8°C 18.1°F-7.7°C 80% 1.8 mph SSE2.9 kmh SSE 2.0 mph3.2 kmh 30.29 in1025.7 mb 0.00 in0.0 mm 0.00 in0.0 mm 0.00 in0.0 mm
11:14 PM 23.2°F-4.9°C 18.0°F-7.8°C 80% 2.0 mph SSE3.2 kmh SSE 2.5 mph4.0 kmh 30.29 in1025.7 mb 0.00 in0.0 mm 0.00 in0.0 mm 0.00 in0.0 mm
11:19 PM 22.8°F-5.1°C 17.6°F-8.0°C 80% Calm Calm 0.9 mph1.4 kmh 30.30 in1026.1 mb 0.00 in0.0 mm 0.00 in0.0 mm 0.00 in0.0 mm
11:24 PM 22.8°F-5.1°C 17.6°F-8.0°C 80% 1.3 mph SSE2.1 kmh SSE 2.7 mph4.3 kmh 30.30 in1026.1 mb 0.00 in0.0 mm 0.00 in0.0 mm 0.00 in0.0 mm
11:29 PM 22.8°F-5.1°C 17.8°F-7.9°C 81% 1.6 mph SE2.6 kmh SE 2.5 mph4.0 kmh 30.30 in1026.1 mb 0.00 in0.0 mm 0.00 in0.0 mm 0.00 in0.0 mm
11:34 PM 22.8°F-5.1°C 17.8°F-7.9°C 81% 1.3 mph SSE2.1 kmh SSE 2.0 mph3.2 kmh 30.30 in1026.1 mb 0.00 in0.0 mm 0.00 in0.0 mm 0.00 in0.0 mm
11:39 PM 22.8°F-5.1°C 17.8°F-7.9°C 81% 1.1 mph SE1.8 kmh SE 1.8 mph2.9 kmh 30.30 in1026.1 mb 0.00 in0.0 mm 0.00 in0.0 mm 0.00 in0.0 mm
11:44 PM 22.8°F-5.1°C 17.8°F-7.9°C 81% 0.7 mph E1.1 kmh E 1.8 mph2.9 kmh 30.30 in1026.1 mb 0.00 in0.0 mm 0.00 in0.0 mm 0.00 in0.0 mm
11:49 PM 22.6°F-5.2°C 17.6°F-8.0°C 81% 1.3 mph SSE2.1 kmh SSE 2.0 mph3.2 kmh 30.30 in1026.1 mb 0.00 in0.0 mm 0.00 in0.0 mm 0.00 in0.0 mm
11:54 PM 22.5°F-5.3°C 17.2°F-8.2°C 80% 1.1 mph ESE1.8 kmh ESE 2.7 mph4.3 kmh 30.30 in1026.1 mb 0.00 in0.0 mm 0.00 in0.0 mm 0.00 in0.0 mm
11:59 PM 22.3°F-5.4°C 17.4°F-8.1°C 81% 2.7 mph S4.3 kmh S 3.8 mph6.1 kmh 30.30 in1026.1 mb 0.00 in0.0 mm 0.00 in0.0 mm 0.00 in0.0 mm